createdAt,value
2018-11-04T00:00:18.622Z,24.57
2018-11-04T00:02:48.043Z,26.82
2018-11-04T00:05:17.254Z,24.27
2018-11-04T00:07:47.322Z,25.77
2018-11-04T00:10:16.180Z,22.93
2018-11-04T00:12:51.408Z,21.43
2018-11-04T00:15:20.247Z,27.50
2018-11-04T00:17:49.197Z,26.23
2018-11-04T00:20:18.090Z,24.50
2018-11-04T00:22:46.914Z,21.93
2018-11-04T00:25:15.767Z,28.77
2018-11-04T00:27:44.574Z,27.80
2018-11-04T00:30:14.499Z,25.23
2018-11-04T00:32:43.764Z,25.45
2018-11-04T00:35:12.646Z,21.90
2018-11-04T00:37:41.521Z,22.63
2018-11-04T00:40:10.390Z,25.97
2018-11-04T00:42:39.239Z,25.27
2018-11-04T00:45:09.086Z,25.77
2018-11-04T00:47:38.519Z,25.47
2018-11-04T00:50:10.409Z,31.40
2018-11-04T00:52:39.372Z,25.43
2018-11-04T00:55:08.837Z,27.52
2018-11-04T00:57:37.821Z,25.60
2018-11-04T01:00:09.631Z,25.23
2018-11-04T01:02:38.443Z,24.37
2018-11-04T01:05:08.004Z,22.73
2018-11-04T01:07:37.166Z,24.10
2018-11-04T01:10:06.781Z,24.83
2018-11-04T01:15:33.269Z,26.17
2018-11-04T01:18:02.148Z,21.60
2018-11-04T01:20:30.945Z,24.67
2018-11-04T01:22:59.778Z,20.33
2018-11-04T01:25:28.599Z,22.77
2018-11-04T01:27:57.475Z,23.02
2018-11-04T01:30:26.506Z,22.77
2018-11-04T01:32:55.214Z,21.33
2018-11-04T01:35:24.125Z,21.07
2018-11-04T01:37:59.743Z,22.87
2018-11-04T01:40:28.585Z,21.93
2018-11-04T01:42:57.441Z,17.95
2018-11-04T01:45:26.292Z,18.42
2018-11-04T01:47:55.131Z,22.47
2018-11-04T01:50:24.036Z,21.30
2018-11-04T01:52:52.965Z,21.03
2018-11-04T01:55:21.785Z,16.30
2018-11-04T01:57:53.885Z,16.97
2018-11-04T02:00:23.069Z,20.00
2018-11-04T02:02:52.003Z,23.50
2018-11-04T02:05:20.800Z,18.77
2018-11-04T02:07:49.654Z,16.93
2018-11-04T02:10:18.500Z,14.67
2018-11-04T02:12:47.400Z,21.17
2018-11-04T02:15:16.198Z,15.53
2018-11-04T02:17:45.051Z,17.20
2018-11-04T02:20:14.133Z,18.80
2018-11-04T02:22:42.960Z,18.27
2018-11-04T02:25:13.146Z,13.78
2018-11-04T02:27:42.543Z,13.33
2018-11-04T02:30:16.537Z,18.25
2018-11-04T02:32:46.170Z,17.57
2018-11-04T02:35:15.641Z,13.70
2018-11-04T02:37:44.568Z,16.95
2018-11-04T02:40:13.617Z,15.45
2018-11-04T02:42:46.447Z,16.27
2018-11-04T02:45:15.331Z,16.40
2018-11-04T02:47:44.169Z,20.45
2018-11-04T02:50:12.945Z,19.37
2018-11-04T02:52:41.797Z,15.90
2018-11-04T02:55:10.551Z,20.53
2018-11-04T02:57:39.407Z,14.33
2018-11-04T03:00:11.427Z,14.20
2018-11-04T03:02:40.516Z,14.05
2018-11-04T03:05:10.307Z,17.73
2018-11-04T03:07:39.646Z,13.80
2018-11-04T03:10:09.146Z,21.97
2018-11-04T03:12:38.229Z,12.68
2018-11-04T03:15:07.155Z,14.13
2018-11-04T03:17:36.132Z,20.00
2018-11-04T03:20:04.966Z,19.50
2018-11-04T03:22:33.769Z,16.43
2018-11-04T03:25:03.240Z,16.60
2018-11-04T03:27:32.140Z,16.40
2018-11-04T03:30:01.354Z,15.72
2018-11-04T03:32:30.286Z,15.37
2018-11-04T03:34:59.146Z,16.40
2018-11-04T03:37:27.946Z,16.13
2018-11-04T03:39:56.818Z,17.13
2018-11-04T03:42:25.594Z,14.17
2018-11-04T03:44:54.557Z,14.40
2018-11-04T03:47:23.386Z,16.82
2018-11-04T03:49:52.445Z,15.58
2018-11-04T03:52:21.283Z,13.13
2018-11-04T03:54:50.118Z,17.90
2018-11-04T03:57:18.970Z,16.73
2018-11-04T03:59:47.882Z,17.32
2018-11-04T04:02:16.685Z,16.70
2018-11-04T04:04:45.577Z,17.43
2018-11-04T04:07:14.374Z,16.57
2018-11-04T04:09:43.276Z,19.17
2018-11-04T04:12:12.074Z,15.87
2018-11-04T04:14:40.915Z,14.80
2018-11-04T04:17:09.707Z,19.67
2018-11-04T04:19:38.546Z,21.33
2018-11-04T04:22:07.398Z,20.68
2018-11-04T04:24:36.333Z,18.63
2018-11-04T04:27:05.270Z,16.33
2018-11-04T04:29:34.295Z,20.23
2018-11-04T04:32:03.121Z,21.30
2018-11-04T04:34:31.955Z,17.30
2018-11-04T04:37:00.766Z,22.40
2018-11-04T04:39:29.679Z,19.42
2018-11-04T04:41:58.506Z,19.75
2018-11-04T04:44:27.828Z,20.83
2018-11-04T04:46:56.658Z,18.57
2018-11-04T04:49:25.618Z,20.53
2018-11-04T04:51:54.465Z,23.22
2018-11-04T04:54:23.357Z,17.77
2018-11-04T04:56:52.480Z,24.17
2018-11-04T04:59:21.303Z,24.20
2018-11-04T05:01:50.117Z,22.07
2018-11-04T05:04:18.941Z,18.07
2018-11-04T05:06:47.895Z,20.80
2018-11-04T05:09:16.739Z,17.97
2018-11-04T05:11:45.590Z,21.05
2018-11-04T05:14:14.418Z,20.35
2018-11-04T05:16:43.213Z,17.37
2018-11-04T05:19:12.110Z,18.73
2018-11-04T05:21:40.927Z,19.33
2018-11-04T05:24:09.734Z,24.17
2018-11-04T05:26:38.595Z,20.73
2018-11-04T05:29:07.445Z,23.23
2018-11-04T05:31:40.181Z,16.97
2018-11-04T05:34:09.464Z,18.98
2018-11-04T05:36:38.361Z,22.30
2018-11-04T05:39:08.957Z,22.35
2018-11-04T05:41:39.249Z,21.23
2018-11-04T05:44:09.699Z,22.05
2018-11-04T05:46:39.457Z,26.30
2018-11-04T05:49:08.332Z,19.83
2018-11-04T05:51:37.190Z,24.33
2018-11-04T05:54:06.029Z,20.20
2018-11-04T05:56:35.106Z,24.50
2018-11-04T05:59:03.973Z,22.33
2018-11-04T06:01:32.814Z,20.30
2018-11-04T06:04:01.701Z,21.00
2018-11-04T06:06:30.589Z,19.43
2018-11-04T06:08:59.554Z,21.50
2018-11-04T06:11:28.487Z,18.87
2018-11-04T06:13:58.023Z,23.87
2018-11-04T06:16:27.029Z,20.77
2018-11-04T06:18:55.916Z,22.67
2018-11-04T06:21:24.781Z,21.17
2018-11-04T06:23:53.561Z,21.53
2018-11-04T06:26:22.401Z,23.03
2018-11-04T06:28:51.258Z,30.90
2018-11-04T06:31:20.113Z,20.93
2018-11-04T06:33:49.073Z,20.70
2018-11-04T06:36:17.897Z,20.03
2018-11-04T06:38:46.897Z,16.70
2018-11-04T06:41:15.901Z,18.90
2018-11-04T06:43:44.682Z,26.23
2018-11-04T06:46:13.586Z,23.33
2018-11-04T06:48:42.714Z,24.77
2018-11-04T06:51:11.702Z,24.73
2018-11-04T06:53:40.622Z,21.67
2018-11-04T06:56:09.438Z,26.30
2018-11-04T06:58:38.321Z,24.10
2018-11-04T07:01:07.154Z,24.57
2018-11-04T07:03:36.098Z,24.43
2018-11-04T07:06:04.935Z,23.63
2018-11-04T07:08:33.864Z,27.83
2018-11-04T07:11:02.774Z,24.07
2018-11-04T07:13:31.642Z,28.90
2018-11-04T07:16:00.608Z,26.63
2018-11-04T07:18:29.631Z,26.63
2018-11-04T07:20:58.474Z,30.87
2018-11-04T07:23:27.343Z,25.13
2018-11-04T07:25:57.540Z,28.40
2018-11-04T07:28:26.418Z,23.23
2018-11-04T07:30:55.189Z,27.70
2018-11-04T07:33:24.073Z,29.43
2018-11-04T07:35:52.855Z,25.70
2018-11-04T07:38:25.673Z,23.10
2018-11-04T07:40:54.723Z,30.07
2018-11-04T07:43:23.535Z,27.37
2018-11-04T07:45:52.305Z,25.13
2018-11-04T07:48:21.335Z,24.87
2018-11-04T07:50:50.305Z,25.93
2018-11-04T07:53:19.218Z,25.80
2018-11-04T07:55:48.017Z,24.53
2018-11-04T07:58:17.156Z,28.03
2018-11-04T08:00:46.053Z,26.63
2018-11-04T08:03:15.433Z,25.67
2018-11-04T08:05:44.237Z,28.10
2018-11-04T08:08:13.082Z,26.37
2018-11-04T08:10:41.804Z,24.23
2018-11-04T08:13:10.629Z,25.93
2018-11-04T08:15:39.435Z,25.47
2018-11-04T08:18:08.256Z,26.10
2018-11-04T08:20:37.114Z,26.13
2018-11-04T08:23:05.957Z,30.87
2018-11-04T08:25:34.738Z,32.80
2018-11-04T08:28:03.600Z,33.63
2018-11-04T08:30:32.482Z,29.53
2018-11-04T08:33:01.366Z,33.07
2018-11-04T08:35:30.243Z,33.23
2018-11-04T08:37:59.050Z,30.70
2018-11-04T08:40:28.178Z,33.10
2018-11-04T08:42:56.949Z,34.33
2018-11-04T08:45:25.885Z,29.73
2018-11-04T08:47:54.738Z,30.03
2018-11-04T08:50:23.702Z,36.47
2018-11-04T08:52:52.556Z,36.60
2018-11-04T08:55:21.456Z,41.60
2018-11-04T08:57:50.275Z,35.57
2018-11-04T09:00:19.139Z,38.83
2018-11-04T09:02:48.071Z,33.70
2018-11-04T09:05:17.095Z,40.07
2018-11-04T09:07:46.421Z,37.10
2018-11-04T09:10:16.263Z,39.47
2018-11-04T09:12:45.716Z,35.97
2018-11-04T09:15:14.618Z,35.30
2018-11-04T09:17:43.500Z,43.00
2018-11-04T09:20:13.696Z,38.30
2018-11-04T09:22:43.549Z,41.37
2018-11-04T09:25:13.079Z,38.43
2018-11-04T09:27:41.893Z,41.93
2018-11-04T09:30:13.922Z,44.77
2018-11-04T09:32:42.898Z,44.30
2018-11-04T09:35:12.264Z,45.67
2018-11-04T09:37:41.540Z,47.27
2018-11-04T09:40:11.750Z,56.00
2018-11-04T09:42:40.821Z,52.13
2018-11-04T09:45:10.342Z,59.27
2018-11-04T09:47:39.610Z,67.33
2018-11-04T09:50:10.003Z,66.10
2018-11-04T09:52:39.117Z,70.20
2018-11-04T09:55:08.781Z,72.03
2018-11-04T09:57:37.770Z,76.10
2018-11-04T10:00:07.945Z,79.80
2018-11-04T10:02:37.329Z,79.57
2018-11-04T10:05:06.949Z,80.70
2018-11-04T10:07:35.820Z,78.87
2018-11-04T10:10:06.786Z,80.73
2018-11-04T10:12:35.700Z,79.10
2018-11-04T10:15:06.236Z,84.13
2018-11-04T10:17:35.055Z,85.00
2018-11-04T10:20:04.767Z,82.30
2018-11-04T10:22:33.220Z,70.67
2018-11-04T10:25:02.047Z,79.17
2018-11-04T10:27:30.922Z,73.47
2018-11-04T10:29:59.757Z,78.57
2018-11-04T10:32:28.918Z,82.30
2018-11-04T10:34:57.915Z,88.87
2018-11-04T10:37:27.173Z,74.67
2018-11-04T10:39:56.067Z,83.63
2018-11-04T10:42:25.409Z,86.60
2018-11-04T10:44:54.198Z,75.30
2018-11-04T10:47:23.177Z,86.23
2018-11-04T10:49:52.159Z,83.53
2018-11-04T10:52:20.919Z,79.73
2018-11-04T10:54:49.742Z,77.30
2018-11-04T10:57:18.630Z,80.50
2018-11-04T10:59:47.533Z,80.47
2018-11-04T11:02:16.403Z,91.97
2018-11-04T11:04:45.569Z,86.17
2018-11-04T11:07:14.312Z,85.50
2018-11-04T11:09:43.185Z,81.93
2018-11-04T11:12:12.051Z,86.97
2018-11-04T11:14:40.953Z,93.57
2018-11-04T11:17:09.747Z,97.67
2018-11-04T11:19:38.568Z,91.50
2018-11-04T11:22:07.465Z,84.43
2018-11-04T11:24:36.297Z,89.83
2018-11-04T11:27:18.483Z,90.50
2018-11-04T11:29:47.958Z,83.33
2018-11-04T11:32:17.119Z,79.63
2018-11-04T11:34:47.303Z,95.50
2018-11-04T11:37:16.242Z,81.90
2018-11-04T11:39:45.146Z,88.67
2018-11-04T11:42:14.061Z,92.10
2018-11-04T11:44:43.157Z,99.30
2018-11-04T11:47:11.956Z,97.80
2018-11-04T11:49:40.826Z,103.07
2018-11-04T11:52:09.788Z,95.53
2018-11-04T11:54:38.847Z,87.10
2018-11-04T11:57:07.799Z,80.10
2018-11-04T11:59:36.671Z,79.93
2018-11-04T12:02:05.683Z,86.47
2018-11-04T12:04:34.666Z,87.93
2018-11-04T12:07:03.732Z,101.73
2018-11-04T12:09:32.851Z,82.07
2018-11-04T12:12:01.685Z,83.07
2018-11-04T12:14:30.589Z,78.53
2018-11-04T12:17:00.265Z,91.30
2018-11-04T12:19:29.307Z,87.80
2018-11-04T12:21:58.232Z,85.53
2018-11-04T12:24:27.022Z,78.10
2018-11-04T12:26:56.005Z,81.17
2018-11-04T12:29:30.866Z,103.93
2018-11-04T12:32:07.420Z,97.83
2018-11-04T12:34:37.103Z,89.73
2018-11-04T12:37:12.401Z,98.20
2018-11-04T12:39:47.729Z,94.70
2018-11-04T12:42:20.183Z,90.77
2018-11-04T12:44:49.369Z,98.07
2018-11-04T12:47:18.561Z,97.40
2018-11-04T12:49:47.478Z,95.57
2018-11-04T12:52:16.441Z,86.20
2018-11-04T12:54:45.153Z,104.43
2018-11-04T12:57:14.050Z,101.00
2018-11-04T12:59:43.515Z,92.23
2018-11-04T13:02:12.523Z,90.13
2018-11-04T13:04:41.373Z,100.67
2018-11-04T13:07:10.197Z,97.37
2018-11-04T13:09:39.013Z,109.37
2018-11-04T13:12:07.981Z,101.47
2018-11-04T13:14:36.827Z,102.07
2018-11-04T13:17:05.690Z,91.40
2018-11-04T13:19:34.707Z,106.07
2018-11-04T13:22:03.526Z,92.20
2018-11-04T13:24:32.378Z,105.37
2018-11-04T13:27:01.273Z,109.83
2018-11-04T13:29:30.115Z,116.00
2018-11-04T13:31:59.066Z,104.50
2018-11-04T13:34:28.045Z,115.00
2018-11-04T13:36:57.085Z,111.67
2018-11-04T13:39:26.236Z,106.53
2018-11-04T13:41:55.066Z,102.60
2018-11-04T13:44:23.934Z,94.40
2018-11-04T13:46:52.836Z,100.13
2018-11-04T13:49:21.756Z,110.17
2018-11-04T13:51:50.626Z,118.27
2018-11-04T13:54:19.802Z,105.37
2018-11-04T13:56:48.649Z,95.50
2018-11-04T13:59:17.483Z,105.47
2018-11-04T14:01:46.441Z,94.33
2018-11-04T14:04:15.376Z,95.67
2018-11-04T14:06:44.245Z,84.60
2018-11-04T14:09:13.183Z,83.50
2018-11-04T14:11:42.476Z,88.70
2018-11-04T14:14:11.280Z,90.27
2018-11-04T14:16:40.299Z,87.60
2018-11-04T14:19:09.123Z,83.23
2018-11-04T14:21:38.098Z,90.47
2018-11-04T14:24:09.027Z,88.97
2018-11-04T14:26:38.021Z,88.53
2018-11-04T14:29:06.851Z,75.67
2018-11-04T14:31:35.739Z,83.10
2018-11-04T14:34:04.718Z,78.97
2018-11-04T14:36:33.610Z,72.53
2018-11-04T14:39:02.457Z,71.83
2018-11-04T14:41:31.314Z,83.77
2018-11-04T14:44:00.237Z,77.57
2018-11-04T14:46:29.145Z,69.53
2018-11-04T14:48:57.986Z,93.33
2018-11-04T14:51:26.873Z,87.20
2018-11-04T14:53:55.738Z,78.07
2018-11-04T14:56:27.198Z,69.30
2018-11-04T14:58:56.682Z,66.10
2018-11-04T15:01:25.721Z,66.50
2018-11-04T15:03:54.623Z,70.23
2018-11-04T15:06:24.554Z,63.87
2018-11-04T15:08:53.586Z,74.87
2018-11-04T15:11:22.490Z,71.27
2018-11-04T15:13:51.445Z,67.53
2018-11-04T15:16:20.270Z,66.30
2018-11-04T15:18:49.284Z,58.00
2018-11-04T15:21:18.051Z,58.50
2018-11-04T15:23:48.565Z,55.33
2018-11-04T15:26:18.157Z,63.20
2018-11-04T15:28:47.032Z,83.83
2018-11-04T15:31:15.934Z,63.50
2018-11-04T15:33:47.324Z,81.77
2018-11-04T15:36:18.403Z,89.20
2018-11-04T15:38:53.795Z,57.03
2018-11-04T15:41:26.425Z,55.47
2018-11-04T15:43:59.839Z,63.07
2018-11-04T15:46:31.076Z,55.33
2018-11-04T15:49:00.524Z,62.87
2018-11-04T15:51:29.409Z,57.73
2018-11-04T15:53:58.621Z,51.43
2018-11-04T15:56:27.505Z,52.03
2018-11-04T15:58:56.441Z,56.53
2018-11-04T16:01:25.403Z,49.27
2018-11-04T16:03:54.278Z,41.23
2018-11-04T16:06:23.122Z,45.50
2018-11-04T16:09:02.337Z,51.37
2018-11-04T16:11:32.514Z,85.07
2018-11-04T16:14:02.393Z,71.90
2018-11-04T16:16:36.951Z,55.90
2018-11-04T16:19:09.830Z,66.93
2018-11-04T16:21:39.732Z,63.77
2018-11-04T16:24:09.733Z,65.03
2018-11-04T16:26:40.151Z,67.83
2018-11-04T16:29:11.191Z,54.20
2018-11-04T16:31:41.341Z,48.87
2018-11-04T16:34:11.523Z,53.73
2018-11-04T16:36:41.288Z,67.00
2018-11-04T16:39:10.250Z,56.17
2018-11-04T16:41:39.041Z,68.23
2018-11-04T16:44:08.368Z,56.80
2018-11-04T16:46:37.509Z,61.30
2018-11-04T16:49:07.225Z,58.53
2018-11-04T16:51:36.533Z,59.13
2018-11-04T16:54:05.682Z,54.60
2018-11-04T16:56:34.470Z,61.13
2018-11-04T16:59:03.462Z,48.90
2018-11-04T17:01:32.405Z,52.83
2018-11-04T17:04:01.414Z,54.83
2018-11-04T17:06:30.244Z,57.40
2018-11-04T17:08:59.045Z,56.33
2018-11-04T17:11:29.664Z,58.83
2018-11-04T17:13:58.816Z,60.37
2018-11-04T17:16:27.613Z,59.20
2018-11-04T17:18:56.439Z,60.63
2018-11-04T17:21:25.242Z,67.10
2018-11-04T17:23:54.054Z,63.67
2018-11-04T17:26:22.894Z,65.07
2018-11-04T17:28:51.739Z,72.50
2018-11-04T17:31:20.740Z,70.60
2018-11-04T17:33:49.588Z,77.73
2018-11-04T17:36:18.461Z,76.07
2018-11-04T17:38:47.325Z,71.30
2018-11-04T17:41:16.118Z,84.13
2018-11-04T17:43:45.102Z,101.27
2018-11-04T17:46:13.915Z,96.23
2018-11-04T17:48:42.741Z,97.23
2018-11-04T17:51:11.514Z,144.37
2018-11-04T17:53:40.380Z,168.20
2018-11-04T17:56:09.518Z,121.97
2018-11-04T17:58:38.357Z,148.17
2018-11-04T18:01:07.218Z,107.33
2018-11-04T18:03:36.053Z,129.20
2018-11-04T18:06:05.009Z,131.43
2018-11-04T18:08:33.878Z,143.23
2018-11-04T18:11:04.811Z,132.23
2018-11-04T18:13:33.676Z,147.20
2018-11-04T18:16:02.566Z,214.13
2018-11-04T18:18:31.455Z,88.33
2018-11-04T18:23:57.083Z,212.30
2018-11-04T18:26:25.961Z,194.63
2018-11-04T18:28:54.675Z,183.23
2018-11-04T18:31:23.621Z,132.43
2018-11-04T18:33:52.482Z,134.57
2018-11-04T18:36:21.358Z,117.93
2018-11-04T18:38:50.164Z,113.83
2018-11-04T18:41:19.015Z,105.73
2018-11-04T18:43:47.989Z,106.63
2018-11-04T18:46:16.692Z,107.13
2018-11-04T18:48:45.686Z,105.47
2018-11-04T18:51:14.688Z,99.03
2018-11-04T18:53:43.625Z,95.57
2018-11-04T18:56:12.447Z,97.47
2018-11-04T18:58:41.307Z,92.57
2018-11-04T19:01:10.200Z,100.27
2018-11-04T19:03:39.117Z,92.10
2018-11-04T19:06:07.988Z,93.43
2018-11-04T19:08:36.898Z,101.37
2018-11-04T19:11:06.111Z,90.57
2018-11-04T19:13:37.137Z,103.37
2018-11-04T19:16:06.567Z,89.00
2018-11-04T19:18:35.581Z,87.03
2018-11-04T19:21:04.725Z,78.77
2018-11-04T19:23:33.598Z,89.97
2018-11-04T19:26:02.475Z,94.93
2018-11-04T19:28:32.082Z,96.43
2018-11-04T19:31:01.106Z,96.17
2018-11-04T19:33:29.942Z,93.07
2018-11-04T19:35:59.862Z,92.47
2018-11-04T19:38:33.501Z,84.20
2018-11-04T19:41:07.169Z,88.57
2018-11-04T19:43:37.686Z,87.83
2018-11-04T19:46:06.910Z,80.30
2018-11-04T19:48:36.186Z,84.13
2018-11-04T19:51:05.495Z,83.90
2018-11-04T19:53:34.271Z,85.07
2018-11-04T19:56:03.231Z,80.93
2018-11-04T19:58:32.197Z,87.03
2018-11-04T20:01:01.012Z,81.57
2018-11-04T20:03:29.982Z,90.80
2018-11-04T20:05:58.925Z,81.07
2018-11-04T20:08:27.761Z,82.40
2018-11-04T20:10:56.693Z,73.87
2018-11-04T20:13:31.005Z,80.57
2018-11-04T20:15:59.866Z,79.63
2018-11-04T20:18:34.086Z,82.30
2018-11-04T20:21:02.903Z,84.77
2018-11-04T20:23:31.924Z,85.20
2018-11-04T20:26:04.671Z,81.93
2018-11-04T20:28:33.729Z,80.73
2018-11-04T20:31:02.599Z,78.00
2018-11-04T20:33:31.554Z,89.53
2018-11-04T20:36:00.648Z,83.53
2018-11-04T20:38:34.816Z,106.73
2018-11-04T20:41:11.149Z,90.30
2018-11-04T20:43:40.038Z,96.30
2018-11-04T20:46:08.904Z,82.60
2018-11-04T20:48:43.754Z,82.73
2018-11-04T20:51:12.571Z,93.60
2018-11-04T20:53:41.634Z,94.43
2018-11-04T20:56:15.896Z,86.33
2018-11-04T20:58:44.976Z,87.77
2018-11-04T21:01:13.736Z,79.70
2018-11-04T21:03:43.390Z,79.83
2018-11-04T21:06:12.345Z,73.97
2018-11-04T21:08:41.285Z,76.10
2018-11-04T21:11:10.046Z,88.10
2018-11-04T21:13:39.214Z,82.83
2018-11-04T21:16:09.359Z,82.93
2018-11-04T21:18:38.134Z,83.83
2018-11-04T21:21:06.982Z,90.47
2018-11-04T21:23:35.876Z,83.00
2018-11-04T21:26:04.818Z,78.20
2018-11-04T21:28:34.021Z,89.43
2018-11-04T21:31:05.207Z,83.23
2018-11-04T21:33:34.030Z,86.47
2018-11-04T21:36:02.914Z,77.60
2018-11-04T21:38:31.780Z,76.53
2018-11-04T21:41:00.670Z,76.63
2018-11-04T21:43:29.884Z,94.80
2018-11-04T21:45:58.454Z,83.33
2018-11-04T21:48:27.273Z,82.33
2018-11-04T21:50:56.207Z,78.83
2018-11-04T21:53:25.156Z,77.20
2018-11-04T21:55:54.193Z,80.90
2018-11-04T21:58:23.061Z,76.23
2018-11-04T22:00:51.958Z,82.57
2018-11-04T22:03:28.067Z,87.17
2018-11-04T22:05:56.604Z,87.47
2018-11-04T22:08:25.604Z,86.17
2018-11-04T22:10:54.482Z,84.47
2018-11-04T22:13:24.351Z,85.27
2018-11-04T22:15:53.286Z,90.30
2018-11-04T22:18:22.153Z,89.93
2018-11-04T22:20:51.050Z,121.70
2018-11-04T22:23:20.047Z,95.10
2018-11-04T22:25:48.843Z,92.43
2018-11-04T22:28:17.782Z,100.77
2018-11-04T22:30:46.708Z,103.60
2018-11-04T22:33:15.554Z,107.60
2018-11-04T22:35:44.387Z,99.40
2018-11-04T22:38:13.246Z,98.00
2018-11-04T22:40:42.081Z,93.43
2018-11-04T22:43:11.001Z,93.80
2018-11-04T22:45:39.887Z,100.47
2018-11-04T22:48:08.767Z,92.90
2018-11-04T22:50:37.647Z,106.67
2018-11-04T22:53:06.716Z,112.63
2018-11-04T22:55:35.596Z,111.27
2018-11-04T22:58:04.952Z,92.77
2018-11-04T23:00:39.915Z,101.40
2018-11-04T23:03:09.157Z,105.83
2018-11-04T23:05:38.207Z,124.70
2018-11-04T23:08:07.472Z,114.67
2018-11-04T23:10:36.383Z,104.67
2018-11-04T23:13:05.361Z,114.07
2018-11-04T23:15:34.488Z,95.13
2018-11-04T23:18:03.467Z,107.77
2018-11-04T23:20:32.418Z,93.63
2018-11-04T23:23:01.442Z,99.07
2018-11-04T23:25:30.345Z,105.83
2018-11-04T23:27:59.142Z,116.83
2018-11-04T23:30:28.694Z,104.80
2018-11-04T23:32:57.734Z,111.23
2018-11-04T23:35:26.673Z,110.40
2018-11-04T23:37:55.546Z,118.73
2018-11-04T23:40:24.410Z,105.10
2018-11-04T23:42:53.318Z,107.70
2018-11-04T23:45:22.347Z,102.90
2018-11-04T23:47:51.214Z,108.80
2018-11-04T23:50:20.051Z,113.60
2018-11-04T23:52:49.042Z,108.37
2018-11-04T23:55:18.022Z,107.40
2018-11-04T23:57:46.930Z,106.57
